sensor_id;sensor_type;location;lat;lon;timestamp;pressure;altitude;pressure_sealevel;temperature;humidity
71559;BME280;59382;43.852;25.952;2024-02-21T00:01:46;102049.28;;;9.62;52.93
71559;BME280;59382;43.852;25.952;2024-02-21T00:04:11;102055.19;;;9.50;53.47
71559;BME280;59382;43.852;25.952;2024-02-21T00:06:37;102047.63;;;9.45;53.74
71559;BME280;59382;43.852;25.952;2024-02-21T00:09:02;102050.66;;;9.42;53.67
71559;BME280;59382;43.852;25.952;2024-02-21T00:11:28;102032.50;;;9.36;53.61
71559;BME280;59382;43.852;25.952;2024-02-21T00:13:54;102039.53;;;9.37;53.51
71559;BME280;59382;43.852;25.952;2024-02-21T00:16:20;102040.56;;;9.44;53.75
71559;BME280;59382;43.852;25.952;2024-02-21T00:18:45;102036.84;;;9.45;53.56
71559;BME280;59382;43.852;25.952;2024-02-21T00:21:11;102035.13;;;9.52;53.54
71559;BME280;59382;43.852;25.952;2024-02-21T00:23:44;102028.41;;;9.56;53.33
71559;BME280;59382;43.852;25.952;2024-02-21T00:26:14;102030.72;;;9.67;53.33
71559;BME280;59382;43.852;25.952;2024-02-21T00:28:40;102020.59;;;9.77;53.22
71559;BME280;59382;43.852;25.952;2024-02-21T00:31:05;102004.94;;;9.73;52.93
71559;BME280;59382;43.852;25.952;2024-02-21T00:33:31;102019.03;;;9.83;53.01
71559;BME280;59382;43.852;25.952;2024-02-21T00:35:57;102019.50;;;9.86;52.80
71559;BME280;59382;43.852;25.952;2024-02-21T00:38:22;102015.75;;;9.95;52.93
71559;BME280;59382;43.852;25.952;2024-02-21T00:40:48;102007.03;;;9.93;52.96
71559;BME280;59382;43.852;25.952;2024-02-21T00:43:13;102021.13;;;10.03;52.58
71559;BME280;59382;43.852;25.952;2024-02-21T00:45:39;102006.63;;;10.04;52.86
71559;BME280;59382;43.852;25.952;2024-02-21T00:48:05;102009.81;;;10.16;52.47
71559;BME280;59382;43.852;25.952;2024-02-21T00:50:30;102011.97;;;10.21;52.74
71559;BME280;59382;43.852;25.952;2024-02-21T00:52:56;102000.84;;;10.24;52.51
71559;BME280;59382;43.852;25.952;2024-02-21T00:55:21;101985.53;;;10.16;52.41
71559;BME280;59382;43.852;25.952;2024-02-21T00:57:47;101998.41;;;10.29;52.63
71559;BME280;59382;43.852;25.952;2024-02-21T01:00:13;102000.47;;;10.27;52.24
71559;BME280;59382;43.852;25.952;2024-02-21T01:02:38;101987.03;;;10.19;52.41
71559;BME280;59382;43.852;25.952;2024-02-21T01:05:04;101992.59;;;10.17;52.52
71559;BME280;59382;43.852;25.952;2024-02-21T01:07:31;102004.16;;;10.26;52.33
71559;BME280;59382;43.852;25.952;2024-02-21T01:09:56;102008.59;;;10.19;52.21
71559;BME280;59382;43.852;25.952;2024-02-21T01:12:22;101979.53;;;9.98;52.78
71559;BME280;59382;43.852;25.952;2024-02-21T01:14:47;101999.56;;;10.03;52.59
71559;BME280;59382;43.852;25.952;2024-02-21T01:17:14;101987.97;;;9.95;52.54
71559;BME280;59382;43.852;25.952;2024-02-21T01:19:40;102012.00;;;10.04;52.58
71559;BME280;59382;43.852;25.952;2024-02-21T01:22:05;102001.94;;;9.98;52.43
71559;BME280;59382;43.852;25.952;2024-02-21T01:24:31;102001.22;;;10.04;52.42
71559;BME280;59382;43.852;25.952;2024-02-21T01:26:56;101999.56;;;10.03;52.38
71559;BME280;59382;43.852;25.952;2024-02-21T01:29:22;101987.44;;;9.99;52.55
71559;BME280;59382;43.852;25.952;2024-02-21T01:31:47;101960.25;;;9.78;52.21
71559;BME280;59382;43.852;25.952;2024-02-21T01:34:13;101994.50;;;10.00;52.26
71559;BME280;59382;43.852;25.952;2024-02-21T01:36:39;101987.63;;;9.98;52.28
71559;BME280;59382;43.852;25.952;2024-02-21T01:39:04;101974.34;;;9.88;52.25
71559;BME280;59382;43.852;25.952;2024-02-21T01:41:30;101989.16;;;9.92;52.36
71559;BME280;59382;43.852;25.952;2024-02-21T01:43:56;101988.50;;;9.90;52.31
71559;BME280;59382;43.852;25.952;2024-02-21T01:46:23;101972.00;;;9.85;52.67
71559;BME280;59382;43.852;25.952;2024-02-21T01:48:49;101974.34;;;9.88;52.48
71559;BME280;59382;43.852;25.952;2024-02-21T01:51:15;101955.66;;;9.87;52.85
71559;BME280;59382;43.852;25.952;2024-02-21T01:53:43;101960.53;;;9.83;52.40
71559;BME280;59382;43.852;25.952;2024-02-21T01:56:10;101967.47;;;9.86;52.60
71559;BME280;59382;43.852;25.952;2024-02-21T01:58:37;101957.69;;;9.85;52.42
71559;BME280;59382;43.852;25.952;2024-02-21T02:01:04;101942.78;;;9.74;52.56
71559;BME280;59382;43.852;25.952;2024-02-21T02:03:29;101959.50;;;9.92;52.81
71559;BME280;59382;43.852;25.952;2024-02-21T02:05:55;101954.78;;;9.94;52.78
71559;BME280;59382;43.852;25.952;2024-02-21T02:08:21;101948.34;;;9.95;52.37
71559;BME280;59382;43.852;25.952;2024-02-21T02:10:51;101927.38;;;9.83;52.43
71559;BME280;59382;43.852;25.952;2024-02-21T02:13:17;101963.47;;;10.04;52.23
71559;BME280;59382;43.852;25.952;2024-02-21T02:15:49;101964.53;;;9.95;52.63
71559;BME280;59382;43.852;25.952;2024-02-21T02:18:16;101971.84;;;9.87;52.72
71559;BME280;59382;43.852;25.952;2024-02-21T02:20:43;101948.19;;;9.66;52.51
71559;BME280;59382;43.852;25.952;2024-02-21T02:23:25;101961.84;;;9.65;53.07
71559;BME280;59382;43.852;25.952;2024-02-21T02:25:51;101956.00;;;9.45;53.00
71559;BME280;59382;43.852;25.952;2024-02-21T02:28:20;101952.03;;;9.33;53.19
71559;BME280;59382;43.852;25.952;2024-02-21T02:30:46;101970.22;;;9.31;53.49
71559;BME280;59382;43.852;25.952;2024-02-21T02:33:12;101969.44;;;9.15;53.33
71559;BME280;59382;43.852;25.952;2024-02-21T02:35:38;101976.69;;;8.98;53.79
71559;BME280;59382;43.852;25.952;2024-02-21T02:38:04;101985.44;;;8.92;53.78
71559;BME280;59382;43.852;25.952;2024-02-21T02:40:31;101977.38;;;8.84;53.92
71559;BME280;59382;43.852;25.952;2024-02-21T02:42:56;101975.00;;;8.81;54.10
71559;BME280;59382;43.852;25.952;2024-02-21T02:45:23;101978.41;;;8.67;54.36
71559;BME280;59382;43.852;25.952;2024-02-21T02:47:49;101978.38;;;8.59;54.12
71559;BME280;59382;43.852;25.952;2024-02-21T02:50:15;101968.97;;;8.47;54.16
71559;BME280;59382;43.852;25.952;2024-02-21T02:52:40;101977.06;;;8.39;54.35
71559;BME280;59382;43.852;25.952;2024-02-21T02:55:07;101956.34;;;8.24;54.63
71559;BME280;59382;43.852;25.952;2024-02-21T02:57:33;101976.84;;;8.33;54.86
71559;BME280;59382;43.852;25.952;2024-02-21T02:59:58;101959.81;;;8.16;54.70
71559;BME280;59382;43.852;25.952;2024-02-21T03:02:24;101971.63;;;8.23;54.66
71559;BME280;59382;43.852;25.952;2024-02-21T03:04:50;101975.34;;;8.30;54.68
71559;BME280;59382;43.852;25.952;2024-02-21T03:07:15;101978.03;;;8.30;54.79
71559;BME280;59382;43.852;25.952;2024-02-21T03:09:42;101975.69;;;8.35;54.56
71559;BME280;59382;43.852;25.952;2024-02-21T03:12:10;101965.91;;;8.42;54.56
71559;BME280;59382;43.852;25.952;2024-02-21T03:14:36;101973.69;;;8.53;54.40
71559;BME280;59382;43.852;25.952;2024-02-21T03:17:02;101951.63;;;8.50;54.26
71559;BME280;59382;43.852;25.952;2024-02-21T03:19:29;101973.69;;;8.53;54.25
71559;BME280;59382;43.852;25.952;2024-02-21T03:21:55;101975.84;;;8.50;54.51
71559;BME280;59382;43.852;25.952;2024-02-21T03:24:20;101956.53;;;8.46;54.59
71559;BME280;59382;43.852;25.952;2024-02-21T03:26:47;101968.81;;;8.57;54.43
71559;BME280;59382;43.852;25.952;2024-02-21T03:29:14;101955.53;;;8.55;54.54
71559;BME280;59382;43.852;25.952;2024-02-21T03:31:40;101955.84;;;8.60;54.37
71559;BME280;59382;43.852;25.952;2024-02-21T03:34:06;101979.22;;;8.76;54.15
71559;BME280;59382;43.852;25.952;2024-02-21T03:36:32;101982.75;;;8.84;54.25
71559;BME280;59382;43.852;25.952;2024-02-21T03:38:58;101961.56;;;8.81;54.17
71559;BME280;59382;43.852;25.952;2024-02-21T03:41:23;101981.72;;;8.93;54.01
71559;BME280;59382;43.852;25.952;2024-02-21T03:43:48;101960.41;;;8.84;53.91
71559;BME280;59382;43.852;25.952;2024-02-21T03:46:14;101964.25;;;8.89;54.03
71559;BME280;59382;43.852;25.952;2024-02-21T03:48:40;101966.59;;;8.92;53.86
71559;BME280;59382;43.852;25.952;2024-02-21T03:51:06;101978.19;;;9.01;53.62
71559;BME280;59382;43.852;25.952;2024-02-21T03:53:32;101974.00;;;8.98;54.30
71559;BME280;59382;43.852;25.952;2024-02-21T03:56:01;101971.94;;;9.00;53.99
71559;BME280;59382;43.852;25.952;2024-02-21T03:58:31;101976.31;;;9.09;53.90
71559;BME280;59382;43.852;25.952;2024-02-21T04:01:00;101962.88;;;9.01;53.88
71559;BME280;59382;43.852;25.952;2024-02-21T04:03:27;101980.19;;;8.99;53.93
71559;BME280;59382;43.852;25.952;2024-02-21T04:05:52;101982.75;;;8.92;54.18
71559;BME280;59382;43.852;25.952;2024-02-21T04:08:18;101980.41;;;8.89;54.34
71559;BME280;59382;43.852;25.952;2024-02-21T04:10:43;101957.53;;;8.77;54.30
71559;BME280;59382;43.852;25.952;2024-02-21T04:13:09;101975.69;;;8.83;54.51
71559;BME280;59382;43.852;25.952;2024-02-21T04:15:34;101982.41;;;8.87;54.23
71559;BME280;59382;43.852;25.952;2024-02-21T04:18:00;101973.84;;;8.76;54.21
71559;BME280;59382;43.852;25.952;2024-02-21T04:20:26;101979.06;;;8.69;54.48
71559;BME280;59382;43.852;25.952;2024-02-21T04:22:51;101978.72;;;8.56;54.67
71559;BME280;59382;43.852;25.952;2024-02-21T04:25:17;101978.22;;;8.53;55.12
71559;BME280;59382;43.852;25.952;2024-02-21T04:27:43;101985.44;;;8.44;55.50
71559;BME280;59382;43.852;25.952;2024-02-21T04:30:09;101987.63;;;8.33;55.41
71559;BME280;59382;43.852;25.952;2024-02-21T04:32:35;101988.91;;;8.21;55.83
71559;BME280;59382;43.852;25.952;2024-02-21T04:35:01;101983.84;;;8.18;55.98
71559;BME280;59382;43.852;25.952;2024-02-21T04:37:26;101986.09;;;8.22;55.79
71559;BME280;59382;43.852;25.952;2024-02-21T04:39:52;101978.03;;;8.30;55.67
71559;BME280;59382;43.852;25.952;2024-02-21T04:42:17;101988.31;;;8.35;55.42
71559;BME280;59382;43.852;25.952;2024-02-21T04:44:43;101994.50;;;8.35;55.13
71559;BME280;59382;43.852;25.952;2024-02-21T04:47:08;101980.72;;;8.38;55.28
71559;BME280;59382;43.852;25.952;2024-02-21T04:49:34;101990.66;;;8.46;55.18
71559;BME280;59382;43.852;25.952;2024-02-21T04:52:00;101991.81;;;8.51;55.31
71559;BME280;59382;43.852;25.952;2024-02-21T04:54:26;101982.44;;;8.39;55.31
71559;BME280;59382;43.852;25.952;2024-02-21T04:56:52;101974.84;;;8.35;55.24
71559;BME280;59382;43.852;25.952;2024-02-21T04:59:18;101976.66;;;8.26;55.52
71559;BME280;59382;43.852;25.952;2024-02-21T05:01:44;101995.47;;;8.18;55.83
71559;BME280;59382;43.852;25.952;2024-02-21T05:04:09;101987.50;;;8.00;55.99
71559;BME280;59382;43.852;25.952;2024-02-21T05:06:41;101998.44;;;8.07;56.04
71559;BME280;59382;43.852;25.952;2024-02-21T05:09:08;101994.78;;;8.16;55.88
71559;BME280;59382;43.852;25.952;2024-02-21T05:11:35;102000.38;;;8.31;55.81
71559;BME280;59382;43.852;25.952;2024-02-21T05:14:01;101986.13;;;8.30;55.63
71559;BME280;59382;43.852;25.952;2024-02-21T05:16:26;102013.19;;;8.53;55.26
71559;BME280;59382;43.852;25.952;2024-02-21T05:18:52;101972.66;;;8.30;55.37
71559;BME280;59382;43.852;25.952;2024-02-21T05:21:17;102007.97;;;8.59;55.45
71559;BME280;59382;43.852;25.952;2024-02-21T05:23:43;102026.81;;;8.75;55.21
71559;BME280;59382;43.852;25.952;2024-02-21T05:26:09;102024.13;;;8.83;55.07
71559;BME280;59382;43.852;25.952;2024-02-21T05:28:34;102023.47;;;8.89;55.06
71559;BME280;59382;43.852;25.952;2024-02-21T05:31:00;102019.41;;;8.93;54.90
71559;BME280;59382;43.852;25.952;2024-02-21T05:33:26;102022.28;;;8.92;55.17
71559;BME280;59382;43.852;25.952;2024-02-21T05:35:52;102023.63;;;8.96;55.17
71559;BME280;59382;43.852;25.952;2024-02-21T05:38:17;102021.25;;;9.01;54.82
71559;BME280;59382;43.852;25.952;2024-02-21T05:40:44;102007.13;;;8.99;55.12
71559;BME280;59382;43.852;25.952;2024-02-21T05:43:10;102017.38;;;9.11;54.83
71559;BME280;59382;43.852;25.952;2024-02-21T05:45:36;102008.97;;;9.14;54.85
71559;BME280;59382;43.852;25.952;2024-02-21T05:48:03;102001.56;;;9.08;54.83
71559;BME280;59382;43.852;25.952;2024-02-21T05:50:28;102018.72;;;9.15;55.05
71559;BME280;59382;43.852;25.952;2024-02-21T05:52:54;102008.81;;;9.00;55.30
71559;BME280;59382;43.852;25.952;2024-02-21T05:55:21;102009.00;;;8.82;55.29
71559;BME280;59382;43.852;25.952;2024-02-21T05:57:46;102024.31;;;8.82;55.37
71559;BME280;59382;43.852;25.952;2024-02-21T06:00:13;102021.78;;;8.72;55.66
71559;BME280;59382;43.852;25.952;2024-02-21T06:02:38;102040.63;;;8.80;55.82
71559;BME280;59382;43.852;25.952;2024-02-21T06:05:06;102040.78;;;8.87;55.71
71559;BME280;59382;43.852;25.952;2024-02-21T06:07:33;102048.34;;;8.91;55.63
71559;BME280;59382;43.852;25.952;2024-02-21T06:09:59;102060.81;;;8.92;55.66
71559;BME280;59382;43.852;25.952;2024-02-21T06:12:25;102066.19;;;9.00;55.65
71559;BME280;59382;43.852;25.952;2024-02-21T06:14:50;102044.66;;;8.92;55.49
71559;BME280;59382;43.852;25.952;2024-02-21T06:17:16;102064.19;;;9.10;55.50
71559;BME280;59382;43.852;25.952;2024-02-21T06:19:43;102041.28;;;9.06;55.33
71559;BME280;59382;43.852;25.952;2024-02-21T06:22:08;102066.19;;;9.16;55.38
71559;BME280;59382;43.852;25.952;2024-02-21T06:24:35;102052.72;;;9.08;55.65
71559;BME280;59382;43.852;25.952;2024-02-21T06:27:04;102071.56;;;9.24;55.27
71559;BME280;59382;43.852;25.952;2024-02-21T06:29:33;102084.72;;;9.19;55.11
71559;BME280;59382;43.852;25.952;2024-02-21T06:32:00;102095.81;;;9.16;55.45
71559;BME280;59382;43.852;25.952;2024-02-21T06:34:25;102087.91;;;9.15;55.80
71559;BME280;59382;43.852;25.952;2024-02-21T06:36:51;102064.34;;;9.01;55.75
71559;BME280;59382;43.852;25.952;2024-02-21T06:39:16;102087.25;;;9.21;55.51
71559;BME280;59382;43.852;25.952;2024-02-21T06:41:42;102094.28;;;9.22;55.75
71559;BME280;59382;43.852;25.952;2024-02-21T06:44:08;102086.88;;;9.16;55.36
71559;BME280;59382;43.852;25.952;2024-02-21T06:46:34;102101.88;;;9.26;55.77
71559;BME280;59382;43.852;25.952;2024-02-21T06:49:01;102083.00;;;9.18;55.61
71559;BME280;59382;43.852;25.952;2024-02-21T06:51:27;102080.66;;;9.23;55.60
71559;BME280;59382;43.852;25.952;2024-02-21T06:53:53;102084.19;;;9.32;55.83
71559;BME280;59382;43.852;25.952;2024-02-21T06:56:19;102089.56;;;9.32;55.85
71559;BME280;59382;43.852;25.952;2024-02-21T06:58:45;102083.00;;;9.34;55.73
71559;BME280;59382;43.852;25.952;2024-02-21T07:01:10;102088.22;;;9.44;55.84
71559;BME280;59382;43.852;25.952;2024-02-21T07:03:36;102086.66;;;9.49;55.43
71559;BME280;59382;43.852;25.952;2024-02-21T07:06:02;102081.97;;;9.59;55.39
71559;BME280;59382;43.852;25.952;2024-02-21T07:08:29;102095.41;;;9.67;55.46
71559;BME280;59382;43.852;25.952;2024-02-21T07:10:55;102096.41;;;9.74;55.16
71559;BME280;59382;43.852;25.952;2024-02-21T07:13:20;102076.88;;;9.72;54.85
71559;BME280;59382;43.852;25.952;2024-02-21T07:15:48;102089.59;;;9.86;55.05
71559;BME280;59382;43.852;25.952;2024-02-21T07:18:14;102078.19;;;9.84;54.86
71559;BME280;59382;43.852;25.952;2024-02-21T07:20:39;102093.63;;;9.98;54.80
71559;BME280;59382;43.852;25.952;2024-02-21T07:23:07;102086.19;;;10.00;54.94
71559;BME280;59382;43.852;25.952;2024-02-21T07:25:32;102095.78;;;10.03;54.79
71559;BME280;59382;43.852;25.952;2024-02-21T07:27:58;102078.13;;;9.92;54.91
71559;BME280;59382;43.852;25.952;2024-02-21T07:30:23;102092.44;;;10.01;55.01
71559;BME280;59382;43.852;25.952;2024-02-21T07:32:50;102096.31;;;10.07;55.04
71559;BME280;59382;43.852;25.952;2024-02-21T07:35:17;102084.66;;;10.06;54.85
71559;BME280;59382;43.852;25.952;2024-02-21T07:37:42;102093.25;;;10.18;55.01
71559;BME280;59382;43.852;25.952;2024-02-21T07:40:17;102077.41;;;10.15;54.77
71559;BME280;59382;43.852;25.952;2024-02-21T07:42:43;102100.94;;;10.29;54.71
71559;BME280;59382;43.852;25.952;2024-02-21T07:45:09;102051.31;;;10.07;54.67
71559;BME280;59382;43.852;25.952;2024-02-21T07:47:38;102095.00;;;10.41;54.69
71559;BME280;59382;43.852;25.952;2024-02-21T07:50:04;102085.00;;;10.42;54.57
71559;BME280;59382;43.852;25.952;2024-02-21T07:52:31;102091.25;;;10.42;54.62
71559;BME280;59382;43.852;25.952;2024-02-21T07:54:56;102097.84;;;10.40;54.89
71559;BME280;59382;43.852;25.952;2024-02-21T07:57:22;102095.81;;;10.42;54.68
71559;BME280;59382;43.852;25.952;2024-02-21T07:59:48;102091.47;;;10.33;54.60
71559;BME280;59382;43.852;25.952;2024-02-21T08:02:16;102075.38;;;10.17;54.89
71559;BME280;59382;43.852;25.952;2024-02-21T08:04:42;102077.78;;;10.12;55.05
71559;BME280;59382;43.852;25.952;2024-02-21T08:07:08;102089.03;;;10.15;54.95
71559;BME280;59382;43.852;25.952;2024-02-21T08:09:35;102101.34;;;10.18;55.26
71559;BME280;59382;43.852;25.952;2024-02-21T08:12:01;102093.78;;;10.13;55.39
71559;BME280;59382;43.852;25.952;2024-02-21T08:14:27;102103.34;;;10.24;55.11
71559;BME280;59382;43.852;25.952;2024-02-21T08:16:52;102093.53;;;10.23;55.34
71559;BME280;59382;43.852;25.952;2024-02-21T08:19:24;102105.53;;;10.20;55.39
71559;BME280;59382;43.852;25.952;2024-02-21T08:21:49;102091.25;;;10.12;55.69
71559;BME280;59382;43.852;25.952;2024-02-21T08:24:15;102088.81;;;10.25;55.57
71559;BME280;59382;43.852;25.952;2024-02-21T08:26:41;102101.56;;;10.39;55.20
71559;BME280;59382;43.852;25.952;2024-02-21T08:29:07;102091.75;;;10.46;55.09
71559;BME280;59382;43.852;25.952;2024-02-21T08:31:32;102096.09;;;10.55;54.80
71559;BME280;59382;43.852;25.952;2024-02-21T08:34:00;102092.00;;;10.59;54.84
71559;BME280;59382;43.852;25.952;2024-02-21T08:36:32;102065.38;;;10.56;54.96
71559;BME280;59382;43.852;25.952;2024-02-21T08:38:58;102089.38;;;10.73;54.78
71559;BME280;59382;43.852;25.952;2024-02-21T08:41:24;102090.88;;;10.76;54.62
71559;BME280;59382;43.852;25.952;2024-02-21T08:43:51;102090.88;;;10.76;54.88
71559;BME280;59382;43.852;25.952;2024-02-21T08:46:17;102084.81;;;10.74;54.79
71559;BME280;59382;43.852;25.952;2024-02-21T08:48:43;102090.22;;;10.74;55.11
71559;BME280;59382;43.852;25.952;2024-02-21T08:51:12;102096.22;;;10.84;54.80
71559;BME280;59382;43.852;25.952;2024-02-21T08:53:38;102091.06;;;10.97;54.84
71559;BME280;59382;43.852;25.952;2024-02-21T08:56:04;102096.09;;;11.00;54.78
71559;BME280;59382;43.852;25.952;2024-02-21T08:58:30;102073.91;;;10.90;55.10
71559;BME280;59382;43.852;25.952;2024-02-21T09:00:56;102083.44;;;11.00;54.66
71559;BME280;59382;43.852;25.952;2024-02-21T09:03:22;102091.22;;;11.18;54.67
71559;BME280;59382;43.852;25.952;2024-02-21T09:05:48;102093.50;;;11.29;54.27
71559;BME280;59382;43.852;25.952;2024-02-21T09:08:14;102073.25;;;11.25;54.29
71559;BME280;59382;43.852;25.952;2024-02-21T09:10:40;102092.09;;;11.33;54.28
71559;BME280;59382;43.852;25.952;2024-02-21T09:13:05;102097.50;;;11.33;54.27
71559;BME280;59382;43.852;25.952;2024-02-21T09:15:32;102085.03;;;11.32;54.56
71559;BME280;59382;43.852;25.952;2024-02-21T09:17:58;102076.25;;;11.30;54.24
71559;BME280;59382;43.852;25.952;2024-02-21T09:20:23;102098.53;;;11.32;54.21
71559;BME280;59382;43.852;25.952;2024-02-21T09:22:49;102100.63;;;11.22;54.92
71559;BME280;59382;43.852;25.952;2024-02-21T09:25:14;102100.72;;;11.14;54.81
71559;BME280;59382;43.852;25.952;2024-02-21T09:27:40;102089.34;;;11.04;55.38
71559;BME280;59382;43.852;25.952;2024-02-21T09:30:06;102094.19;;;11.08;55.16
71559;BME280;59382;43.852;25.952;2024-02-21T09:32:32;102080.38;;;11.03;55.49
71559;BME280;59382;43.852;25.952;2024-02-21T09:35:00;102094.66;;;11.12;55.05
71559;BME280;59382;43.852;25.952;2024-02-21T09:37:26;102106.16;;;11.28;54.80
71559;BME280;59382;43.852;25.952;2024-02-21T09:39:52;102103.28;;;11.30;55.14
71559;BME280;59382;43.852;25.952;2024-02-21T09:42:20;102108.69;;;11.30;54.86
71559;BME280;59382;43.852;25.952;2024-02-21T09:44:50;102106.28;;;11.35;54.98
71559;BME280;59382;43.852;25.952;2024-02-21T09:47:19;102107.09;;;11.35;55.08
71559;BME280;59382;43.852;25.952;2024-02-21T09:49:47;102104.22;;;11.37;54.79
71559;BME280;59382;43.852;25.952;2024-02-21T09:52:15;102105.91;;;11.38;55.03
71559;BME280;59382;43.852;25.952;2024-02-21T09:54:41;102096.03;;;11.45;54.37
71559;BME280;59382;43.852;25.952;2024-02-21T09:57:10;102070.22;;;11.42;54.82
71559;BME280;59382;43.852;25.952;2024-02-21T09:59:37;102088.13;;;11.58;54.74
71559;BME280;59382;43.852;25.952;2024-02-21T10:02:03;102086.09;;;11.60;54.66
71559;BME280;59382;43.852;25.952;2024-02-21T10:04:30;102075.34;;;11.52;54.63
71559;BME280;59382;43.852;25.952;2024-02-21T10:06:56;102064.09;;;11.48;54.71
71559;BME280;59382;43.852;25.952;2024-02-21T10:09:25;102078.34;;;11.57;54.82
71559;BME280;59382;43.852;25.952;2024-02-21T10:11:53;102064.53;;;11.52;54.45
71559;BME280;59382;43.852;25.952;2024-02-21T10:14:20;102081.00;;;11.65;54.82
71559;BME280;59382;43.852;25.952;2024-02-21T10:16:57;102071.75;;;11.74;54.37
71559;BME280;59382;43.852;25.952;2024-02-21T10:19:25;102057.78;;;11.70;54.20
71559;BME280;59382;43.852;25.952;2024-02-21T10:22:00;102060.84;;;11.82;54.30
71559;BME280;59382;43.852;25.952;2024-02-21T10:24:27;102050.22;;;11.80;54.21
71559;BME280;59382;43.852;25.952;2024-02-21T10:27:03;102026.81;;;11.73;54.15
71559;BME280;59382;43.852;25.952;2024-02-21T10:29:30;102055.19;;;11.92;54.01
71559;BME280;59382;43.852;25.952;2024-02-21T10:32:13;102030.81;;;11.77;54.19
71559;BME280;59382;43.852;25.952;2024-02-21T10:34:41;102029.81;;;11.78;54.18
71559;BME280;59382;43.852;25.952;2024-02-21T10:37:08;102036.44;;;11.90;54.33
71559;BME280;59382;43.852;25.952;2024-02-21T10:39:37;102037.19;;;11.84;54.17
71559;BME280;59382;43.852;25.952;2024-02-21T10:42:03;102027.19;;;11.84;54.70
71559;BME280;59382;43.852;25.952;2024-02-21T10:44:32;102026.56;;;11.82;54.43
71559;BME280;59382;43.852;25.952;2024-02-21T10:46:58;102008.94;;;11.72;54.39
71559;BME280;59382;43.852;25.952;2024-02-21T10:49:25;102016.66;;;11.75;54.64
71559;BME280;59382;43.852;25.952;2024-02-21T10:51:55;102018.91;;;11.71;54.59
71559;BME280;59382;43.852;25.952;2024-02-21T10:55:19;102007.59;;;11.68;54.77
71559;BME280;59382;43.852;25.952;2024-02-21T10:57:19;102002.28;;;11.60;54.91
71559;BME280;59382;43.852;25.952;2024-02-21T10:59:48;102001.19;;;11.69;54.56
71559;BME280;59382;43.852;25.952;2024-02-21T11:02:14;102002.59;;;11.79;54.70
71559;BME280;59382;43.852;25.952;2024-02-21T11:04:40;101999.75;;;11.87;54.55
71559;BME280;59382;43.852;25.952;2024-02-21T11:07:07;102001.72;;;11.93;54.38
71559;BME280;59382;43.852;25.952;2024-02-21T11:09:33;101994.34;;;12.02;54.41
71559;BME280;59382;43.852;25.952;2024-02-21T11:12:02;101981.72;;;12.09;54.40
71559;BME280;59382;43.852;25.952;2024-02-21T11:14:29;101978.44;;;12.14;54.23
71559;BME280;59382;43.852;25.952;2024-02-21T11:16:58;101980.19;;;12.21;54.16
71559;BME280;59382;43.852;25.952;2024-02-21T11:19:27;101974.47;;;12.31;54.24
71559;BME280;59382;43.852;25.952;2024-02-21T11:21:55;101968.28;;;12.37;54.15
71559;BME280;59382;43.852;25.952;2024-02-21T11:24:33;101961.00;;;12.37;53.97
71559;BME280;59382;43.852;25.952;2024-02-21T11:27:20;101964.47;;;12.31;54.15
71559;BME280;59382;43.852;25.952;2024-02-21T11:29:48;101946.97;;;12.27;53.71
71559;BME280;59382;43.852;25.952;2024-02-21T11:32:17;101951.22;;;12.36;53.75
71559;BME280;59382;43.852;25.952;2024-02-21T11:35:00;101952.88;;;12.37;53.84
71559;BME280;59382;43.852;25.952;2024-02-21T11:37:31;101937.41;;;12.31;53.79
71559;BME280;59382;43.852;25.952;2024-02-21T11:40:03;101938.13;;;12.40;53.69
71559;BME280;59382;43.852;25.952;2024-02-21T11:42:30;101945.03;;;12.42;53.88
71559;BME280;59382;43.852;25.952;2024-02-21T11:44:56;101929.94;;;12.33;53.97
71559;BME280;59382;43.852;25.952;2024-02-21T11:47:23;101927.06;;;12.35;53.88
71559;BME280;59382;43.852;25.952;2024-02-21T11:49:49;101939.63;;;12.42;54.03
71559;BME280;59382;43.852;25.952;2024-02-21T11:52:21;101937.53;;;12.44;53.88
71559;BME280;59382;43.852;25.952;2024-02-21T11:54:48;101945.91;;;12.49;53.67
71559;BME280;59382;43.852;25.952;2024-02-21T11:57:14;101931.31;;;12.44;53.58
71559;BME280;59382;43.852;25.952;2024-02-21T11:59:40;101939.22;;;12.45;53.86
71559;BME280;59382;43.852;25.952;2024-02-21T12:02:06;101941.28;;;12.43;54.12
71559;BME280;59382;43.852;25.952;2024-02-21T12:04:32;101927.88;;;12.35;54.13
71559;BME280;59382;43.852;25.952;2024-02-21T12:06:58;101927.47;;;12.38;54.34
71559;BME280;59382;43.852;25.952;2024-02-21T12:09:24;101914.59;;;12.40;54.05
71559;BME280;59382;43.852;25.952;2024-02-21T12:12:00;101912.16;;;12.45;53.60
71559;BME280;59382;43.852;25.952;2024-02-21T12:14:27;101923.50;;;12.55;53.69
71559;BME280;59382;43.852;25.952;2024-02-21T12:16:53;101918.47;;;12.52;53.82
71559;BME280;59382;43.852;25.952;2024-02-21T12:19:19;101919.94;;;12.55;53.65
71559;BME280;59382;43.852;25.952;2024-02-21T12:21:45;101916.78;;;12.51;53.94
71559;BME280;59382;43.852;25.952;2024-02-21T12:26:40;101897.19;;;12.49;53.77
71559;BME280;59382;43.852;25.952;2024-02-21T12:29:06;101915.59;;;12.60;53.68
71559;BME280;59382;43.852;25.952;2024-02-21T12:31:36;101885.28;;;12.44;53.58
71559;BME280;59382;43.852;25.952;2024-02-21T12:34:02;101902.69;;;12.56;53.73
71559;BME280;59382;43.852;25.952;2024-02-21T12:36:27;101907.25;;;12.55;54.06
71559;BME280;59382;43.852;25.952;2024-02-21T12:38:53;101901.81;;;12.55;53.74
71559;BME280;59382;43.852;25.952;2024-02-21T12:41:18;101899.34;;;12.60;53.60
71559;BME280;59382;43.852;25.952;2024-02-21T12:43:44;101888.94;;;12.57;53.40
71559;BME280;59382;43.852;25.952;2024-02-21T12:46:09;101894.00;;;12.67;53.57